createdAt,value
2018-10-06T00:00:22.462Z,100.00
2018-10-06T00:02:51.273Z,100.00
2018-10-06T00:05:21.262Z,100.00
2018-10-06T00:07:50.689Z,100.00
2018-10-06T00:10:19.890Z,100.00
2018-10-06T00:12:49.010Z,100.00
2018-10-06T00:15:18.546Z,100.00
2018-10-06T00:17:47.690Z,100.00
2018-10-06T00:20:16.829Z,100.00
2018-10-06T00:22:45.971Z,100.00
2018-10-06T00:25:15.094Z,100.00
2018-10-06T00:27:44.782Z,100.00
2018-10-06T00:30:13.982Z,100.00
2018-10-06T00:32:43.152Z,100.00
2018-10-06T00:35:12.289Z,100.00
2018-10-06T00:37:41.818Z,100.00
2018-10-06T00:40:11.555Z,100.00
2018-10-06T00:42:41.227Z,100.00
2018-10-06T00:45:10.870Z,100.00
2018-10-06T00:47:40.114Z,100.00
2018-10-06T00:50:09.234Z,100.00
2018-10-06T00:52:39.178Z,100.00
2018-10-06T00:55:15.327Z,100.00
2018-10-06T00:57:44.434Z,100.00
2018-10-06T01:00:13.574Z,100.00
2018-10-06T01:02:42.938Z,100.00
2018-10-06T01:05:13.007Z,100.00
2018-10-06T01:07:42.165Z,100.00
2018-10-06T01:10:12.214Z,100.00
2018-10-06T01:12:41.461Z,100.00
2018-10-06T01:15:10.648Z,100.00
2018-10-06T01:17:39.956Z,100.00
2018-10-06T01:20:09.366Z,100.00
2018-10-06T01:22:38.968Z,100.00
2018-10-06T01:25:08.454Z,100.00
2018-10-06T01:27:37.778Z,100.00
2018-10-06T01:30:07.269Z,100.00
2018-10-06T01:32:36.417Z,100.00
2018-10-06T01:35:05.704Z,100.00
2018-10-06T01:37:35.133Z,100.00
2018-10-06T01:40:04.282Z,100.00
2018-10-06T01:42:33.429Z,100.00
2018-10-06T01:45:02.993Z,100.00
2018-10-06T01:47:33.183Z,100.00
2018-10-06T01:50:02.457Z,100.00
2018-10-06T01:52:31.502Z,100.00
2018-10-06T01:55:00.630Z,100.00
2018-10-06T01:57:29.793Z,100.00
2018-10-06T02:00:01.171Z,100.00
2018-10-06T02:02:30.473Z,100.00
2018-10-06T02:04:59.773Z,100.00
2018-10-06T02:07:29.065Z,100.00
2018-10-06T02:09:58.327Z,100.00
2018-10-06T02:12:27.650Z,100.00
2018-10-06T02:14:57.390Z,100.00
2018-10-06T02:17:27.655Z,100.00
2018-10-06T02:19:57.041Z,100.00
2018-10-06T02:22:26.275Z,100.00
2018-10-06T02:24:56.080Z,100.00
2018-10-06T02:27:25.945Z,100.00
2018-10-06T02:29:55.175Z,100.00
2018-10-06T02:32:24.515Z,100.00
2018-10-06T02:34:53.761Z,100.00
2018-10-06T02:37:23.217Z,100.00
2018-10-06T02:39:52.449Z,100.00
2018-10-06T02:42:22.069Z,100.00
2018-10-06T02:44:51.334Z,100.00
2018-10-06T02:47:20.635Z,100.00
2018-10-06T02:49:51.274Z,100.00
2018-10-06T02:52:20.537Z,100.00
2018-10-06T02:54:49.730Z,100.00
2018-10-06T02:57:18.960Z,100.00
2018-10-06T02:59:48.134Z,100.00
2018-10-06T03:02:17.342Z,100.00
2018-10-06T03:04:46.513Z,100.00
2018-10-06T03:07:15.790Z,100.00
2018-10-06T03:09:45.427Z,100.00
2018-10-06T03:12:14.917Z,100.00
2018-10-06T03:14:44.235Z,100.00
2018-10-06T03:17:13.182Z,100.00
2018-10-06T03:19:42.863Z,100.00
2018-10-06T03:22:12.495Z,100.00
2018-10-06T03:24:41.677Z,100.00
2018-10-06T03:27:11.133Z,100.00
2018-10-06T03:29:40.267Z,100.00
2018-10-06T03:32:09.383Z,100.00
2018-10-06T03:34:38.494Z,100.00
2018-10-06T03:37:07.611Z,100.00
2018-10-06T03:39:36.793Z,100.00
2018-10-06T03:42:06.295Z,100.00
2018-10-06T03:44:35.386Z,100.00
2018-10-06T03:47:04.586Z,100.00
2018-10-06T03:49:33.669Z,100.00
2018-10-06T03:52:02.767Z,100.00
2018-10-06T03:54:32.601Z,100.00
2018-10-06T03:57:01.702Z,100.00
2018-10-06T03:59:30.786Z,100.00
2018-10-06T04:01:59.890Z,100.00
2018-10-06T04:04:29.014Z,100.00
2018-10-06T04:06:58.122Z,100.00
2018-10-06T04:09:27.226Z,100.00
2018-10-06T04:11:57.171Z,100.00
2018-10-06T04:14:26.537Z,100.00
2018-10-06T04:16:55.721Z,100.00
2018-10-06T04:19:24.642Z,100.00
2018-10-06T04:21:53.796Z,100.00
2018-10-06T04:24:22.909Z,100.00
2018-10-06T04:26:51.993Z,100.00
2018-10-06T04:29:21.118Z,100.00
2018-10-06T04:31:51.544Z,100.00
2018-10-06T04:34:20.658Z,100.00
2018-10-06T04:36:49.756Z,100.00
2018-10-06T04:39:18.869Z,100.00
2018-10-06T04:41:48.025Z,100.00
2018-10-06T04:44:17.150Z,100.00
2018-10-06T04:46:46.890Z,100.00
2018-10-06T04:49:16.002Z,100.00
2018-10-06T04:51:45.166Z,100.00
2018-10-06T04:54:14.831Z,100.00
2018-10-06T04:56:44.058Z,100.00
2018-10-06T04:59:13.318Z,100.00
2018-10-06T05:01:43.134Z,100.00
2018-10-06T05:04:12.814Z,100.00
2018-10-06T05:06:41.897Z,100.00
2018-10-06T05:09:11.006Z,100.00
2018-10-06T05:11:40.114Z,100.00
2018-10-06T05:14:09.230Z,100.00
2018-10-06T05:16:38.367Z,100.00
2018-10-06T05:19:07.623Z,100.00
2018-10-06T05:21:36.811Z,100.00
2018-10-06T05:24:06.044Z,100.00
2018-10-06T05:26:34.775Z,100.00
2018-10-06T05:29:04.119Z,100.00
2018-10-06T05:31:33.331Z,100.00
2018-10-06T05:34:02.497Z,100.00
2018-10-06T05:36:31.587Z,100.00
2018-10-06T05:39:01.232Z,100.00
2018-10-06T05:41:30.332Z,100.00
2018-10-06T05:43:59.475Z,100.00
2018-10-06T05:46:28.629Z,100.00
2018-10-06T05:48:58.158Z,100.00
2018-10-06T05:51:27.288Z,100.00
2018-10-06T05:53:56.506Z,100.00
2018-10-06T05:56:25.638Z,100.00
2018-10-06T05:58:55.605Z,100.00
2018-10-06T06:01:24.711Z,100.00
2018-10-06T06:03:53.834Z,100.00
2018-10-06T06:06:22.934Z,100.00
2018-10-06T06:08:52.035Z,100.00
2018-10-06T06:11:21.491Z,100.00
2018-10-06T06:13:50.658Z,100.00
2018-10-06T06:16:20.203Z,100.00
2018-10-06T06:18:50.079Z,100.00
2018-10-06T06:21:19.643Z,100.00
2018-10-06T06:23:48.829Z,100.00
2018-10-06T06:26:17.911Z,100.00
2018-10-06T06:28:47.725Z,100.00
2018-10-06T06:31:16.891Z,100.00
2018-10-06T06:33:46.070Z,100.00
2018-10-06T06:36:15.228Z,100.00
2018-10-06T06:38:44.638Z,100.00
2018-10-06T06:41:15.165Z,100.00
2018-10-06T06:43:44.299Z,100.00
2018-10-06T06:46:13.375Z,100.00
2018-10-06T06:48:42.508Z,96.35
2018-10-06T06:51:11.655Z,100.00
2018-10-06T06:53:40.794Z,100.00
2018-10-06T06:56:10.386Z,100.00
2018-10-06T06:58:40.162Z,100.00
2018-10-06T07:01:09.471Z,100.00
2018-10-06T07:03:38.639Z,100.00
2018-10-06T07:06:07.776Z,91.51
2018-10-06T07:08:36.929Z,82.08
2018-10-06T07:11:06.039Z,83.49
2018-10-06T07:13:35.206Z,81.27
2018-10-06T07:16:04.976Z,83.67
2018-10-06T07:18:35.692Z,82.13
2018-10-06T07:21:04.999Z,77.55
2018-10-06T07:23:34.530Z,74.33
2018-10-06T07:26:03.803Z,69.45
2018-10-06T07:28:32.944Z,69.59
2018-10-06T07:31:02.027Z,70.02
2018-10-06T07:33:31.129Z,63.34
2018-10-06T07:36:00.255Z,61.39
2018-10-06T07:38:30.055Z,52.73
2018-10-06T07:40:59.154Z,46.15
2018-10-06T07:43:28.337Z,44.14
2018-10-06T07:45:57.466Z,42.01
2018-10-06T07:48:26.566Z,45.45
2018-10-06T07:50:56.567Z,51.10
2018-10-06T07:53:25.712Z,45.62
2018-10-06T07:55:54.831Z,44.49
2018-10-06T07:58:24.094Z,46.57
2018-10-06T08:00:53.225Z,45.89
2018-10-06T08:03:22.377Z,42.01
2018-10-06T08:05:51.768Z,39.02
2018-10-06T08:08:21.758Z,37.01
2018-10-06T08:10:51.013Z,39.13
2018-10-06T08:13:20.748Z,36.36
2018-10-06T08:15:49.979Z,32.03
2018-10-06T08:18:18.865Z,31.23
2018-10-06T08:20:48.109Z,34.06
2018-10-06T08:23:18.002Z,35.50
2018-10-06T08:25:47.897Z,31.76
2018-10-06T08:28:17.785Z,31.87
2018-10-06T08:30:47.759Z,32.50
2018-10-06T08:33:17.155Z,32.63
2018-10-06T08:35:46.685Z,34.74
2018-10-06T08:38:16.131Z,40.81
2018-10-06T08:40:45.098Z,47.43
2018-10-06T08:43:14.841Z,49.36
2018-10-06T08:45:43.951Z,53.63
2018-10-06T08:48:13.342Z,52.78
2018-10-06T08:50:42.858Z,52.61
2018-10-06T08:53:12.098Z,49.48
2018-10-06T08:55:42.344Z,47.40
2018-10-06T08:58:11.700Z,48.85
2018-10-06T09:00:40.458Z,45.79
2018-10-06T09:03:10.052Z,38.40
2018-10-06T09:05:40.446Z,38.86
2018-10-06T09:08:09.730Z,37.77
2018-10-06T09:10:38.948Z,38.40
2018-10-06T09:13:08.234Z,39.62
2018-10-06T09:15:37.557Z,42.94
2018-10-06T09:18:07.346Z,45.71
2018-10-06T09:20:36.446Z,44.92
2018-10-06T09:23:05.658Z,47.53
2018-10-06T09:25:34.862Z,49.19
2018-10-06T09:28:04.029Z,51.40
2018-10-06T09:30:33.143Z,51.36
2018-10-06T09:33:02.430Z,50.53
2018-10-06T09:35:31.565Z,50.43
2018-10-06T09:38:00.694Z,51.80
2018-10-06T09:40:29.838Z,53.44
2018-10-06T09:42:58.998Z,54.98
2018-10-06T09:45:28.273Z,57.35
2018-10-06T09:47:58.393Z,55.77
2018-10-06T09:50:27.442Z,56.76
2018-10-06T09:52:56.255Z,56.18
2018-10-06T09:55:25.867Z,54.37
2018-10-06T09:57:55.045Z,53.51
2018-10-06T10:00:31.043Z,56.27
2018-10-06T10:03:05.456Z,56.67
2018-10-06T10:05:39.893Z,55.34
2018-10-06T10:08:09.647Z,52.47
2018-10-06T10:10:41.161Z,48.59
2018-10-06T10:13:10.606Z,39.91
2018-10-06T10:15:41.322Z,39.83
2018-10-06T10:18:11.036Z,37.21
2018-10-06T10:20:40.136Z,42.21
2018-10-06T10:23:09.972Z,44.42
2018-10-06T10:25:39.462Z,43.31
2018-10-06T10:28:08.566Z,40.99
2018-10-06T10:30:37.866Z,39.06
2018-10-06T10:33:07.578Z,42.34
2018-10-06T10:35:37.653Z,42.54
2018-10-06T10:38:07.691Z,44.89
2018-10-06T10:40:38.402Z,43.75
2018-10-06T10:43:08.342Z,43.59
2018-10-06T10:45:37.094Z,43.47
2018-10-06T10:48:06.861Z,42.42
2018-10-06T10:50:36.077Z,41.83
2018-10-06T10:53:05.401Z,36.14
2018-10-06T10:55:34.655Z,33.18
2018-10-06T10:58:05.258Z,26.94
2018-10-06T11:00:34.513Z,27.48
2018-10-06T11:03:03.575Z,24.31
2018-10-06T11:05:33.237Z,20.32
2018-10-06T11:08:02.375Z,20.63
2018-10-06T11:10:31.597Z,22.15
2018-10-06T11:13:00.712Z,25.28
2018-10-06T11:15:30.679Z,29.63
2018-10-06T11:18:00.534Z,27.92
2018-10-06T11:20:31.025Z,24.69
2018-10-06T11:23:01.639Z,22.57
2018-10-06T11:25:30.754Z,25.52
2018-10-06T11:27:59.878Z,28.79
2018-10-06T11:30:29.198Z,27.18
2018-10-06T11:32:58.271Z,27.05
2018-10-06T11:35:27.427Z,30.19
2018-10-06T11:37:56.611Z,32.88
2018-10-06T11:40:25.656Z,33.79
2018-10-06T11:42:54.754Z,33.43
2018-10-06T11:45:24.110Z,33.07
2018-10-06T11:47:53.214Z,34.21
2018-10-06T11:50:22.867Z,36.38
2018-10-06T11:52:51.943Z,39.41
2018-10-06T11:55:21.062Z,40.12
2018-10-06T11:57:50.371Z,39.98
2018-10-06T12:00:19.598Z,39.28
2018-10-06T12:02:48.598Z,39.45
2018-10-06T12:05:17.767Z,38.16
2018-10-06T12:07:46.862Z,37.47
2018-10-06T12:10:16.334Z,35.93
2018-10-06T12:12:45.482Z,35.29
2018-10-06T12:15:16.235Z,37.16
2018-10-06T12:17:45.392Z,36.57
2018-10-06T12:20:14.507Z,39.92
2018-10-06T12:22:43.653Z,38.87
2018-10-06T12:25:13.370Z,39.10
2018-10-06T12:27:43.206Z,37.74
2018-10-06T12:30:11.951Z,37.07
2018-10-06T12:32:41.318Z,36.48
2018-10-06T12:35:10.498Z,35.21
2018-10-06T12:37:39.543Z,34.67
2018-10-06T12:40:08.662Z,35.98
2018-10-06T12:42:37.837Z,34.61
2018-10-06T12:45:07.344Z,34.08
2018-10-06T12:47:36.433Z,34.44
2018-10-06T12:50:05.990Z,34.63
2018-10-06T12:52:35.117Z,34.31
2018-10-06T12:55:07.493Z,32.88
2018-10-06T12:57:36.586Z,32.75
2018-10-06T13:00:06.193Z,32.32
2018-10-06T13:02:35.841Z,32.08
2018-10-06T13:05:04.975Z,33.45
2018-10-06T13:07:34.092Z,32.64
2018-10-06T13:10:03.307Z,35.14
2018-10-06T13:12:32.456Z,36.01
2018-10-06T13:15:01.594Z,34.13
2018-10-06T13:17:31.310Z,34.07
2018-10-06T13:20:00.968Z,36.01
2018-10-06T13:22:30.056Z,35.76
2018-10-06T13:24:59.171Z,35.42
2018-10-06T13:27:28.266Z,36.76
2018-10-06T13:29:57.398Z,38.43
2018-10-06T13:32:26.675Z,38.32
2018-10-06T13:34:56.314Z,38.03
2018-10-06T13:37:25.522Z,38.20
2018-10-06T13:39:54.790Z,39.22
2018-10-06T13:42:23.902Z,39.35
2018-10-06T13:44:53.027Z,38.82
2018-10-06T13:47:22.118Z,39.77
2018-10-06T13:49:51.218Z,39.71
2018-10-06T13:52:20.313Z,38.81
2018-10-06T13:54:49.560Z,38.16
2018-10-06T13:57:19.090Z,37.65
2018-10-06T13:59:49.762Z,38.08
2018-10-06T14:02:18.838Z,36.69
2018-10-06T14:04:47.925Z,36.39
2018-10-06T14:07:17.842Z,36.80
2018-10-06T14:09:46.942Z,35.51
2018-10-06T14:12:16.199Z,35.78
2018-10-06T14:14:46.043Z,38.08
2018-10-06T14:17:15.646Z,37.57
2018-10-06T14:19:45.030Z,38.51
2018-10-06T14:22:13.811Z,39.00
2018-10-06T14:24:43.001Z,39.15
2018-10-06T14:27:12.103Z,39.15
2018-10-06T14:29:41.656Z,38.92
2018-10-06T14:32:10.866Z,39.57
2018-10-06T14:34:40.538Z,39.91
2018-10-06T14:37:10.700Z,39.63
2018-10-06T14:39:39.929Z,40.95
2018-10-06T14:42:09.054Z,40.29
2018-10-06T14:44:38.318Z,42.01
2018-10-06T14:47:07.585Z,42.62
2018-10-06T14:49:36.615Z,42.38
2018-10-06T14:52:05.966Z,43.18
2018-10-06T14:54:35.693Z,43.13
2018-10-06T14:57:05.137Z,43.32
2018-10-06T14:59:35.546Z,43.10
2018-10-06T15:02:04.955Z,43.00
2018-10-06T15:04:34.422Z,42.54
2018-10-06T15:07:03.566Z,42.40
2018-10-06T15:09:32.908Z,43.45
2018-10-06T15:12:02.499Z,42.81
2018-10-06T15:14:31.578Z,43.34
2018-10-06T15:17:01.579Z,43.65
2018-10-06T15:19:30.674Z,43.47
2018-10-06T15:21:59.864Z,43.58
2018-10-06T15:24:30.478Z,42.93
2018-10-06T15:26:59.794Z,43.05
2018-10-06T15:29:28.978Z,43.58
2018-10-06T15:31:59.914Z,43.40
2018-10-06T15:34:28.784Z,43.39
2018-10-06T15:36:58.490Z,43.94
2018-10-06T15:39:28.837Z,44.67
2018-10-06T15:41:58.278Z,45.67
2018-10-06T15:44:28.254Z,46.04
2018-10-06T15:46:57.767Z,45.88
2018-10-06T15:49:27.698Z,46.49
2018-10-06T15:51:56.610Z,46.72
2018-10-06T15:54:25.791Z,46.72
2018-10-06T15:56:55.290Z,47.78
2018-10-06T15:59:24.861Z,48.27
2018-10-06T16:01:53.566Z,48.89
2018-10-06T16:04:24.062Z,50.25
2018-10-06T16:06:53.507Z,51.59
2018-10-06T16:09:22.667Z,51.83
2018-10-06T16:11:51.817Z,51.74
2018-10-06T16:14:21.363Z,52.60
2018-10-06T16:16:50.495Z,53.00
2018-10-06T16:19:19.594Z,53.57
2018-10-06T16:21:48.683Z,53.47
2018-10-06T16:24:17.794Z,53.96
2018-10-06T16:26:47.696Z,54.79
2018-10-06T16:29:17.082Z,55.36
2018-10-06T16:31:46.734Z,56.43
2018-10-06T16:34:18.299Z,57.73
2018-10-06T16:36:48.144Z,58.59
2018-10-06T16:39:19.779Z,59.53
2018-10-06T16:41:48.886Z,59.32
2018-10-06T16:44:17.988Z,61.08
2018-10-06T16:46:47.874Z,62.07
2018-10-06T16:49:17.922Z,64.55
2018-10-06T16:51:48.148Z,64.53
2018-10-06T16:54:17.401Z,63.52
2018-10-06T16:56:46.218Z,63.60
2018-10-06T16:59:15.782Z,63.96
2018-10-06T17:01:47.596Z,65.27
2018-10-06T17:04:18.603Z,65.94
2018-10-06T17:06:48.010Z,64.02
2018-10-06T17:09:21.737Z,63.29
2018-10-06T17:11:51.939Z,63.49
2018-10-06T17:14:23.483Z,63.65
2018-10-06T17:16:52.583Z,65.36
2018-10-06T17:19:22.482Z,66.42
2018-10-06T17:21:51.646Z,65.95
2018-10-06T17:24:21.553Z,65.98
2018-10-06T17:26:50.600Z,67.04
2018-10-06T17:29:19.946Z,66.68
2018-10-06T17:31:52.286Z,66.73
2018-10-06T17:34:21.450Z,67.49
2018-10-06T17:36:51.086Z,67.60
2018-10-06T17:39:20.290Z,67.94
2018-10-06T17:41:50.086Z,69.31
2018-10-06T17:44:19.267Z,68.81
2018-10-06T17:46:49.886Z,69.00
2018-10-06T17:49:18.846Z,68.97
2018-10-06T17:51:48.018Z,69.14
2018-10-06T17:54:17.774Z,69.46
2018-10-06T17:56:47.113Z,69.43
2018-10-06T17:59:16.220Z,69.73
2018-10-06T18:01:45.616Z,70.40
2018-10-06T18:04:15.410Z,70.64
2018-10-06T18:06:44.911Z,70.64
2018-10-06T18:09:21.082Z,71.18
2018-10-06T18:11:51.490Z,71.73
2018-10-06T18:14:20.899Z,74.37
2018-10-06T18:16:50.452Z,75.30
2018-10-06T18:19:19.583Z,74.66
2018-10-06T18:21:48.691Z,73.44
2018-10-06T18:24:17.805Z,75.18
2018-10-06T18:26:49.905Z,75.01
2018-10-06T18:29:19.515Z,74.71
2018-10-06T18:31:48.840Z,74.36
2018-10-06T18:34:18.363Z,74.56
2018-10-06T18:36:47.715Z,75.08
2018-10-06T18:39:16.863Z,74.53
2018-10-06T18:41:46.166Z,74.30
2018-10-06T18:44:15.453Z,73.99
2018-10-06T18:46:46.231Z,74.15
2018-10-06T18:49:15.487Z,73.96
2018-10-06T18:51:44.713Z,74.36
2018-10-06T18:54:14.451Z,75.28
2018-10-06T18:56:43.702Z,75.04
2018-10-06T18:59:13.399Z,75.57
2018-10-06T19:01:42.897Z,75.74
2018-10-06T19:04:12.552Z,76.08
2018-10-06T19:06:41.694Z,76.48
2018-10-06T19:09:11.061Z,77.09
2018-10-06T19:11:40.510Z,78.09
2018-10-06T19:14:12.106Z,77.58
2018-10-06T19:16:41.337Z,79.42
2018-10-06T19:19:11.107Z,80.60
2018-10-06T19:21:40.394Z,81.36
2018-10-06T19:24:10.071Z,81.53
2018-10-06T19:26:39.411Z,81.02
2018-10-06T19:29:09.134Z,81.03
2018-10-06T19:31:38.999Z,81.61
2018-10-06T19:34:08.208Z,82.12
2018-10-06T19:36:37.466Z,82.18
2018-10-06T19:39:08.125Z,82.78
2018-10-06T19:41:38.191Z,83.01
2018-10-06T19:44:07.443Z,83.21
2018-10-06T19:46:37.050Z,83.85
2018-10-06T19:49:06.396Z,84.40
2018-10-06T19:51:35.949Z,83.98
2018-10-06T19:54:05.667Z,84.28
2018-10-06T19:56:34.799Z,83.02
2018-10-06T19:59:03.892Z,83.65
2018-10-06T20:01:33.040Z,83.56
2018-10-06T20:04:02.203Z,84.45
2018-10-06T20:06:31.482Z,85.00
2018-10-06T20:09:00.691Z,86.02
2018-10-06T20:11:29.695Z,86.66
2018-10-06T20:14:00.926Z,86.46
2018-10-06T20:16:30.086Z,86.19
2018-10-06T20:18:59.230Z,86.02
2018-10-06T20:21:29.750Z,86.16
2018-10-06T20:23:58.982Z,87.36
2018-10-06T20:26:28.195Z,87.30
2018-10-06T20:28:59.142Z,87.56
2018-10-06T20:31:29.536Z,88.18
2018-10-06T20:33:58.672Z,88.58
2018-10-06T20:36:27.762Z,87.95
2018-10-06T20:38:57.010Z,88.34
2018-10-06T20:41:26.167Z,89.14
2018-10-06T20:43:55.298Z,89.51
2018-10-06T20:46:25.004Z,89.04
2018-10-06T20:48:54.077Z,88.85
2018-10-06T20:51:23.156Z,89.40
2018-10-06T20:53:52.270Z,89.49
2018-10-06T20:56:21.403Z,90.36
2018-10-06T20:58:50.500Z,90.39
2018-10-06T21:01:19.588Z,91.39
2018-10-06T21:03:49.143Z,92.23
2018-10-06T21:06:18.246Z,92.57
2018-10-06T21:08:47.345Z,92.80
2018-10-06T21:11:16.507Z,93.26
2018-10-06T21:13:45.610Z,93.77
2018-10-06T21:16:14.698Z,93.85
2018-10-06T21:18:43.972Z,94.44
2018-10-06T21:21:13.085Z,94.44
2018-10-06T21:23:42.178Z,96.12
2018-10-06T21:26:11.315Z,96.03
2018-10-06T21:28:40.453Z,95.40
2018-10-06T21:31:09.613Z,95.70
2018-10-06T21:33:38.634Z,95.50
2018-10-06T21:36:07.903Z,95.49
2018-10-06T21:38:37.024Z,95.53
2018-10-06T21:41:06.227Z,96.91
2018-10-06T21:43:35.366Z,97.36
2018-10-06T21:46:04.531Z,97.05
2018-10-06T21:48:33.931Z,96.59
2018-10-06T21:51:03.114Z,96.08
2018-10-06T21:53:32.209Z,96.21
2018-10-06T21:56:01.484Z,96.99
2018-10-06T21:58:31.166Z,95.81
2018-10-06T22:01:05.680Z,96.49
2018-10-06T22:03:35.323Z,96.42
2018-10-06T22:06:05.575Z,96.55
2018-10-06T22:08:35.478Z,95.58
2018-10-06T22:11:04.672Z,95.79
2018-10-06T22:13:33.787Z,96.16
2018-10-06T22:16:03.326Z,96.67
2018-10-06T22:18:32.709Z,97.02
2018-10-06T22:21:01.518Z,96.72
2018-10-06T22:23:31.102Z,98.37
2018-10-06T22:25:59.874Z,100.00
2018-10-06T22:28:29.038Z,100.00
2018-10-06T22:30:58.359Z,100.00
2018-10-06T22:33:27.510Z,100.00
2018-10-06T22:35:56.638Z,100.00
2018-10-06T22:38:25.730Z,100.00
2018-10-06T22:40:55.038Z,100.00
2018-10-06T22:43:23.759Z,100.00
2018-10-06T22:45:52.863Z,100.00
2018-10-06T22:48:22.082Z,100.00
2018-10-06T22:50:51.484Z,100.00
2018-10-06T22:53:20.302Z,100.00
2018-10-06T22:55:49.434Z,100.00
2018-10-06T22:58:18.542Z,100.00
2018-10-06T23:00:47.722Z,100.00
2018-10-06T23:03:17.054Z,100.00
2018-10-06T23:05:46.070Z,100.00
2018-10-06T23:08:15.221Z,100.00
2018-10-06T23:10:45.338Z,100.00
2018-10-06T23:13:14.458Z,100.00
2018-10-06T23:15:47.722Z,100.00
2018-10-06T23:18:16.836Z,100.00
2018-10-06T23:20:46.935Z,100.00
2018-10-06T23:23:16.046Z,100.00
2018-10-06T23:25:45.144Z,100.00
2018-10-06T23:28:14.249Z,100.00
2018-10-06T23:30:43.355Z,100.00
2018-10-06T23:33:12.534Z,100.00
2018-10-06T23:35:41.654Z,100.00
2018-10-06T23:38:10.817Z,100.00
2018-10-06T23:40:40.745Z,100.00
2018-10-06T23:43:10.013Z,100.00
2018-10-06T23:45:38.881Z,100.00
2018-10-06T23:48:08.582Z,100.00
2018-10-06T23:50:37.688Z,100.00
2018-10-06T23:53:06.810Z,100.00
2018-10-06T23:55:35.906Z,100.00
2018-10-06T23:58:05.003Z,100.00
